createdAt,value
2019-02-19T00:04:17.787Z,8.67
2019-02-19T00:07:04.624Z,9.47
2019-02-19T00:09:51.404Z,5.80
2019-02-19T00:12:38.218Z,8.43
2019-02-19T00:15:25.058Z,7.17
2019-02-19T00:18:11.890Z,5.47
2019-02-19T00:20:58.744Z,6.10
2019-02-19T00:23:45.568Z,5.90
2019-02-19T00:26:32.406Z,7.83
2019-02-19T00:29:19.245Z,9.47
2019-02-19T00:32:06.094Z,9.20
2019-02-19T00:34:53.030Z,8.77
2019-02-19T00:37:39.879Z,8.93
2019-02-19T00:40:26.746Z,8.00
2019-02-19T00:43:13.691Z,7.93
2019-02-19T00:46:00.533Z,6.27
2019-02-19T00:48:47.381Z,7.10
2019-02-19T00:51:34.226Z,7.80
2019-02-19T00:54:14.130Z,7.63
2019-02-19T00:56:54.331Z,5.37
2019-02-19T00:59:34.559Z,7.27
2019-02-19T01:02:14.729Z,6.60
2019-02-19T01:04:55.052Z,7.20
2019-02-19T01:07:35.246Z,6.87
2019-02-19T01:10:15.253Z,6.40
2019-02-19T01:12:55.406Z,5.57
2019-02-19T01:15:35.513Z,7.40
2019-02-19T01:18:15.546Z,7.00
2019-02-19T01:20:55.693Z,5.93
2019-02-19T01:23:35.846Z,6.97
2019-02-19T01:26:15.746Z,9.10
2019-02-19T01:28:56.001Z,6.57
2019-02-19T01:31:35.991Z,8.40
2019-02-19T01:34:16.294Z,6.97
2019-02-19T01:36:56.585Z,6.83
2019-02-19T01:39:36.632Z,5.97
2019-02-19T01:42:16.817Z,9.67
2019-02-19T01:44:56.663Z,8.27
2019-02-19T01:47:36.577Z,6.27
2019-02-19T01:50:16.462Z,6.80
2019-02-19T01:52:56.673Z,10.33
2019-02-19T01:55:36.653Z,7.43
2019-02-19T01:58:16.987Z,8.43
2019-02-19T02:00:57.077Z,6.93
2019-02-19T02:03:37.333Z,13.33
2019-02-19T02:06:17.046Z,6.87
2019-02-19T02:08:57.045Z,6.13
2019-02-19T02:11:37.199Z,9.60
2019-02-19T02:14:17.481Z,7.27
2019-02-19T02:16:57.366Z,7.03
2019-02-19T02:19:37.613Z,12.03
2019-02-19T02:22:17.373Z,7.50
2019-02-19T02:24:57.508Z,7.77
2019-02-19T02:27:37.605Z,8.60
2019-02-19T02:30:17.589Z,9.87
2019-02-19T02:32:57.566Z,7.47
2019-02-19T02:35:37.010Z,9.60
2019-02-19T02:38:17.103Z,13.40
2019-02-19T02:40:56.987Z,9.83
2019-02-19T02:43:37.007Z,9.37
2019-02-19T02:46:17.154Z,10.10
2019-02-19T02:48:57.306Z,11.83
2019-02-19T02:51:37.250Z,11.63
2019-02-19T02:54:17.220Z,10.00
2019-02-19T02:56:57.220Z,11.70
2019-02-19T02:59:37.073Z,12.00
2019-02-19T03:02:17.386Z,12.40
2019-02-19T03:04:57.653Z,11.73
2019-02-19T03:07:40.719Z,13.77
2019-02-19T03:10:20.869Z,19.53
2019-02-19T03:13:00.956Z,17.63
2019-02-19T03:15:40.861Z,22.80
2019-02-19T03:18:20.909Z,25.43
2019-02-19T03:21:00.851Z,17.60
2019-02-19T03:23:41.021Z,22.77
2019-02-19T03:26:20.889Z,24.27
2019-02-19T03:29:01.009Z,24.17
2019-02-19T03:31:40.921Z,29.20
2019-02-19T03:34:20.951Z,27.07
2019-02-19T03:37:00.842Z,24.80
2019-02-19T03:39:40.723Z,27.50
2019-02-19T03:42:20.746Z,25.43
2019-02-19T03:45:00.683Z,29.30
2019-02-19T03:47:40.727Z,24.43
2019-02-19T03:50:20.906Z,24.03
2019-02-19T03:53:01.034Z,23.77
2019-02-19T03:55:40.919Z,27.80
2019-02-19T03:58:20.909Z,28.07
2019-02-19T04:01:01.012Z,35.17
2019-02-19T04:03:41.129Z,27.80
2019-02-19T04:06:21.422Z,34.47
2019-02-19T04:09:01.346Z,30.87
2019-02-19T04:11:41.429Z,35.87
2019-02-19T04:14:21.469Z,31.63
2019-02-19T04:17:01.733Z,37.13
2019-02-19T04:19:41.817Z,33.80
2019-02-19T04:22:22.116Z,34.63
2019-02-19T04:25:02.294Z,34.03
2019-02-19T04:27:42.519Z,39.97
2019-02-19T04:30:22.576Z,34.97
2019-02-19T04:33:02.526Z,35.17
2019-02-19T04:35:42.423Z,33.97
2019-02-19T04:38:22.594Z,39.70
2019-02-19T04:41:02.749Z,35.97
2019-02-19T04:43:42.917Z,43.30
2019-02-19T04:46:31.125Z,38.90
2019-02-19T04:48:51.881Z,43.43
2019-02-19T04:51:19.206Z,41.20
2019-02-19T04:53:46.437Z,40.67
2019-02-19T04:56:13.661Z,40.47
2019-02-19T04:58:41.005Z,45.83
2019-02-19T05:01:08.339Z,44.60
2019-02-19T05:03:35.725Z,52.13
2019-02-19T05:06:03.142Z,49.30
2019-02-19T05:08:30.560Z,45.77
2019-02-19T05:10:57.773Z,45.57
2019-02-19T05:13:25.141Z,50.40
2019-02-19T05:15:52.358Z,54.63
2019-02-19T05:18:19.706Z,49.00
2019-02-19T05:20:46.935Z,51.67
2019-02-19T05:23:14.181Z,50.53
2019-02-19T05:25:41.533Z,50.80
2019-02-19T05:28:08.861Z,48.63
2019-02-19T05:30:36.201Z,53.27
2019-02-19T05:33:03.525Z,47.87
2019-02-19T05:35:30.868Z,49.67
2019-02-19T05:37:58.242Z,50.73
2019-02-19T05:40:25.593Z,47.60
2019-02-19T05:42:52.907Z,51.87
2019-02-19T05:45:20.265Z,47.80
2019-02-19T05:47:47.590Z,51.00
2019-02-19T05:50:14.910Z,48.27
2019-02-19T05:52:42.289Z,47.23
2019-02-19T05:55:09.710Z,44.47
2019-02-19T05:57:37.097Z,51.33
2019-02-19T06:00:04.532Z,46.20
2019-02-19T06:02:32.896Z,48.93
2019-02-19T06:05:00.302Z,49.63
2019-02-19T06:07:27.683Z,53.17
2019-02-19T06:09:55.009Z,49.50
2019-02-19T06:12:22.353Z,46.10
2019-02-19T06:14:49.687Z,47.33
2019-02-19T06:17:17.041Z,49.27
2019-02-19T06:19:44.382Z,44.50
2019-02-19T06:22:11.708Z,49.13
2019-02-19T06:24:58.572Z,49.17
2019-02-19T06:27:45.411Z,41.57
2019-02-19T06:30:32.245Z,38.03
2019-02-19T06:33:19.064Z,46.47
2019-02-19T06:36:05.927Z,40.97
2019-02-19T06:38:45.628Z,38.10
2019-02-19T06:41:25.791Z,41.70
2019-02-19T06:44:05.942Z,42.20
2019-02-19T06:46:46.141Z,35.27
2019-02-19T06:49:26.318Z,37.77
2019-02-19T06:52:06.607Z,38.20
2019-02-19T06:54:46.494Z,34.60
2019-02-19T06:57:26.509Z,37.93
2019-02-19T07:00:06.833Z,34.00
2019-02-19T07:03:06.518Z,38.00
2019-02-19T07:05:46.169Z,35.57
2019-02-19T07:08:26.187Z,34.80
2019-02-19T07:11:06.417Z,42.23
2019-02-19T07:13:46.197Z,36.93
2019-02-19T07:16:26.306Z,31.30
2019-02-19T07:19:06.459Z,33.63
2019-02-19T07:21:46.735Z,36.70
2019-02-19T07:24:26.812Z,31.43
2019-02-19T07:27:06.995Z,30.63
2019-02-19T07:29:47.001Z,32.53
2019-02-19T07:32:26.925Z,29.60
2019-02-19T07:35:06.987Z,33.73
2019-02-19T07:37:34.416Z,33.03
2019-02-19T07:40:01.927Z,33.40
2019-02-19T07:42:29.306Z,34.97
2019-02-19T07:44:56.783Z,30.80
2019-02-19T07:47:24.833Z,28.33
2019-02-19T07:50:11.899Z,32.93
2019-02-19T07:52:39.245Z,32.07
2019-02-19T07:55:26.073Z,31.03
2019-02-19T07:58:13.053Z,32.80
2019-02-19T08:00:59.965Z,28.17
2019-02-19T08:03:46.805Z,29.97
2019-02-19T08:06:33.653Z,29.80
2019-02-19T08:09:01.013Z,25.87
2019-02-19T08:11:28.379Z,27.57
2019-02-19T08:14:15.105Z,26.23
2019-02-19T08:17:01.950Z,26.17
2019-02-19T08:19:48.897Z,28.13
2019-02-19T08:22:35.814Z,30.03
2019-02-19T08:25:22.675Z,28.67
2019-02-19T08:28:09.745Z,26.87
2019-02-19T08:30:56.586Z,35.50
2019-02-19T08:33:43.415Z,33.13
2019-02-19T08:36:30.183Z,26.93
2019-02-19T08:39:10.106Z,32.30
2019-02-19T08:41:50.437Z,24.53
2019-02-19T08:44:30.468Z,30.10
2019-02-19T08:47:10.533Z,28.60
2019-02-19T08:49:50.546Z,30.37
2019-02-19T08:52:30.532Z,25.83
2019-02-19T08:55:10.564Z,26.67
2019-02-19T08:57:50.507Z,29.30
2019-02-19T09:00:30.630Z,30.47
2019-02-19T09:03:10.932Z,27.30
2019-02-19T09:05:51.041Z,27.47
2019-02-19T09:08:31.134Z,31.43
2019-02-19T09:11:10.975Z,25.87
2019-02-19T09:13:50.946Z,25.90
2019-02-19T09:16:30.759Z,25.17
2019-02-19T09:19:10.942Z,27.87
2019-02-19T09:21:50.992Z,22.93
2019-02-19T09:24:31.146Z,23.67
2019-02-19T09:27:11.450Z,24.10
2019-02-19T09:29:51.562Z,21.63
2019-02-19T09:32:31.550Z,20.50
2019-02-19T09:35:11.666Z,19.93
2019-02-19T09:37:51.682Z,21.53
2019-02-19T09:40:33.440Z,20.00
2019-02-19T09:43:13.750Z,22.23
2019-02-19T09:45:53.971Z,22.67
2019-02-19T09:48:33.984Z,17.33
2019-02-19T09:51:14.165Z,20.57
2019-02-19T09:53:54.140Z,18.37
2019-02-19T09:56:34.232Z,17.10
2019-02-19T09:59:14.426Z,17.30
2019-02-19T10:01:54.422Z,16.63
2019-02-19T10:04:34.386Z,16.30
2019-02-19T10:07:14.428Z,14.77
2019-02-19T10:09:54.306Z,14.43
2019-02-19T10:12:34.203Z,16.53
2019-02-19T10:15:14.143Z,16.87
2019-02-19T10:17:54.142Z,12.90
2019-02-19T10:20:34.137Z,16.10
2019-02-19T10:23:14.129Z,11.60
2019-02-19T10:25:54.320Z,10.67
2019-02-19T10:28:34.189Z,12.63
2019-02-19T10:31:14.369Z,10.57
2019-02-19T10:33:54.264Z,10.23
2019-02-19T10:36:34.271Z,7.63
2019-02-19T10:39:14.247Z,11.57
2019-02-19T10:41:54.333Z,11.60
2019-02-19T10:44:34.283Z,12.40
2019-02-19T10:47:14.513Z,8.27
2019-02-19T10:49:54.475Z,8.90
2019-02-19T10:52:34.484Z,9.07
2019-02-19T10:55:14.631Z,9.53
2019-02-19T10:57:54.624Z,7.83
2019-02-19T11:00:34.777Z,11.27
2019-02-19T11:03:14.871Z,11.83
2019-02-19T11:05:56.976Z,7.43
2019-02-19T11:08:37.196Z,11.90
2019-02-19T11:11:17.330Z,7.97
2019-02-19T11:13:57.368Z,13.60
2019-02-19T11:16:37.457Z,12.03
2019-02-19T11:19:17.325Z,8.93
2019-02-19T11:21:57.207Z,10.70
2019-02-19T11:24:37.515Z,9.57
2019-02-19T11:27:17.696Z,9.10
2019-02-19T11:29:57.801Z,7.43
2019-02-19T11:32:38.029Z,8.03
2019-02-19T11:35:18.249Z,8.90
2019-02-19T11:37:58.473Z,7.57
2019-02-19T11:40:38.480Z,10.80
2019-02-19T11:43:18.760Z,8.53
2019-02-19T11:45:58.437Z,10.40
2019-02-19T11:48:38.445Z,10.17
2019-02-19T11:51:18.456Z,9.17
2019-02-19T11:53:58.377Z,11.50
2019-02-19T11:56:38.509Z,7.27
2019-02-19T11:59:18.465Z,8.67
2019-02-19T12:01:59.508Z,9.37
2019-02-19T12:04:39.663Z,7.23
2019-02-19T12:07:19.482Z,10.30
2019-02-19T12:09:59.846Z,9.37
2019-02-19T12:12:39.840Z,7.47
2019-02-19T12:15:19.818Z,9.73
2019-02-19T12:17:59.853Z,7.83
2019-02-19T12:20:40.012Z,6.13
2019-02-19T12:23:19.925Z,10.37
2019-02-19T12:26:00.308Z,10.30
2019-02-19T12:28:40.729Z,10.67
2019-02-19T12:31:21.043Z,9.30
2019-02-19T12:34:01.077Z,6.43
2019-02-19T12:36:28.429Z,11.93
2019-02-19T12:39:15.301Z,7.67
2019-02-19T12:42:02.180Z,9.33
2019-02-19T12:44:49.006Z,10.77
2019-02-19T12:47:35.855Z,6.00
2019-02-19T12:50:22.707Z,9.30
2019-02-19T12:53:09.578Z,7.30
2019-02-19T12:55:56.556Z,11.40
2019-02-19T13:01:50.000Z,7.50
2019-02-19T13:04:36.900Z,14.13
2019-02-19T13:07:23.693Z,8.40
2019-02-19T13:10:10.610Z,7.03
2019-02-19T13:12:57.813Z,8.63
2019-02-19T13:15:44.705Z,7.47
2019-02-19T13:18:51.040Z,5.53
2019-02-19T13:21:37.846Z,6.73
2019-02-19T13:24:24.710Z,10.87
2019-02-19T13:27:11.607Z,4.63
2019-02-19T13:29:58.675Z,11.73
2019-02-19T13:32:45.548Z,10.17
2019-02-19T13:35:32.432Z,9.37
2019-02-19T13:38:19.316Z,8.80
2019-02-19T13:40:59.612Z,8.00
2019-02-19T13:43:39.678Z,9.63
2019-02-19T13:46:20.048Z,11.37
2019-02-19T13:49:00.226Z,8.17
2019-02-19T13:51:40.347Z,12.20
2019-02-19T13:54:34.214Z,8.97
2019-02-19T13:57:13.900Z,9.93
2019-02-19T13:59:53.992Z,11.73
2019-02-19T14:02:33.982Z,22.50
2019-02-19T14:05:14.103Z,9.67
2019-02-19T14:07:54.229Z,10.73
2019-02-19T14:10:34.208Z,9.23
2019-02-19T14:13:14.198Z,6.87
2019-02-19T14:16:13.884Z,8.37
2019-02-19T14:19:02.601Z,8.93
2019-02-19T14:21:59.583Z,7.73
2019-02-19T14:24:49.512Z,9.83
2019-02-19T14:27:30.338Z,7.57
2019-02-19T14:30:23.449Z,11.17
2019-02-19T14:33:06.558Z,8.23
2019-02-19T14:35:53.749Z,11.10
2019-02-19T14:38:38.842Z,9.27
2019-02-19T14:41:43.969Z,11.00
2019-02-19T14:44:29.057Z,7.83
2019-02-19T14:47:09.049Z,10.53
2019-02-19T14:49:54.349Z,13.07
2019-02-19T14:52:41.214Z,8.20
2019-02-19T14:55:19.653Z,9.47
2019-02-19T14:58:01.579Z,12.53
2019-02-19T15:00:46.150Z,8.97
2019-02-19T15:03:35.513Z,11.93
2019-02-19T15:06:25.185Z,5.87
2019-02-19T15:09:13.389Z,10.33
2019-02-19T15:11:58.804Z,7.63
2019-02-19T15:14:40.734Z,10.60
2019-02-19T15:17:27.596Z,6.63
2019-02-19T15:20:17.430Z,9.33
2019-02-19T15:23:09.827Z,10.53
2019-02-19T15:26:00.494Z,8.43
2019-02-19T15:28:47.513Z,7.80
2019-02-19T15:31:45.982Z,7.70
2019-02-19T15:34:26.133Z,9.93
2019-02-19T15:37:22.002Z,11.63
2019-02-19T15:40:07.300Z,10.60
2019-02-19T15:42:54.170Z,3.80
2019-02-19T15:45:30.572Z,8.40
2019-02-19T15:48:11.823Z,11.00
2019-02-19T15:50:57.128Z,9.87
2019-02-19T15:53:44.025Z,10.03
2019-02-19T15:56:33.884Z,9.00
2019-02-19T15:59:18.952Z,7.77
2019-02-19T16:02:05.981Z,12.40
2019-02-19T16:04:58.728Z,8.30
2019-02-19T16:07:35.103Z,9.67
2019-02-19T16:10:13.189Z,9.00
2019-02-19T16:12:52.746Z,14.20
2019-02-19T16:15:36.652Z,10.80
2019-02-19T16:18:43.084Z,13.47
2019-02-19T16:21:49.437Z,11.93
2019-02-19T16:24:55.797Z,11.07
2019-02-19T16:28:02.161Z,11.13
2019-02-19T16:31:08.521Z,11.20
2019-02-19T16:34:12.594Z,10.90
2019-02-19T16:37:18.969Z,13.30
2019-02-19T16:40:25.323Z,10.97
2019-02-19T16:43:16.221Z,11.17
2019-02-19T16:46:03.127Z,9.20
2019-02-19T16:49:04.949Z,6.80
2019-02-19T16:52:00.583Z,14.43
2019-02-19T16:54:35.558Z,10.43
2019-02-19T16:57:31.365Z,8.20
2019-02-19T17:00:15.821Z,8.33
2019-02-19T17:02:48.674Z,9.30
2019-02-19T17:05:47.664Z,12.43
2019-02-19T17:08:43.108Z,8.23
2019-02-19T17:14:41.938Z,15.60
2019-02-19T17:17:48.293Z,15.23
2019-02-19T17:20:54.675Z,9.10
2019-02-19T17:24:01.261Z,10.17
2019-02-19T17:27:07.718Z,10.67
2019-02-19T17:30:02.799Z,11.90
2019-02-19T17:39:20.724Z,8.67
2019-02-19T17:42:27.077Z,13.20
2019-02-19T17:45:26.420Z,17.67
2019-02-19T17:48:25.686Z,15.67
2019-02-19T17:51:18.542Z,11.00
2019-02-19T17:54:18.509Z,14.80
2019-02-19T17:57:18.071Z,11.40
2019-02-19T18:00:17.067Z,12.27
2019-02-19T18:03:16.169Z,11.60
2019-02-19T18:06:15.450Z,220.03
2019-02-19T18:09:05.218Z,32.93
2019-02-19T18:11:47.004Z,16.43
2019-02-19T18:14:40.878Z,12.27
2019-02-19T18:17:24.587Z,12.53
2019-02-19T18:20:11.492Z,10.57
2019-02-19T18:22:38.947Z,9.57
2019-02-19T18:25:25.980Z,12.87
2019-02-19T18:28:34.614Z,8.73
2019-02-19T18:31:21.497Z,11.47
2019-02-19T18:34:08.478Z,10.03
2019-02-19T18:36:55.357Z,10.27
2019-02-19T18:39:42.254Z,9.77
2019-02-19T18:42:29.495Z,8.60
2019-02-19T18:45:09.792Z,10.10
2019-02-19T18:47:37.196Z,13.70
2019-02-19T18:50:24.050Z,15.50
2019-02-19T18:53:10.937Z,10.93
2019-02-19T18:55:57.717Z,11.20
2019-02-19T18:58:44.493Z,16.67
2019-02-19T19:01:31.380Z,12.37
2019-02-19T19:04:18.304Z,10.60
2019-02-19T19:07:05.178Z,13.77
2019-02-19T19:09:52.071Z,10.17
2019-02-19T19:12:39.035Z,13.37
2019-02-19T19:15:25.937Z,8.97
2019-02-19T19:18:13.577Z,11.70
2019-02-19T19:21:07.682Z,11.30
2019-02-19T19:24:09.225Z,15.60
2019-02-19T19:26:56.190Z,11.13
2019-02-19T19:29:43.048Z,11.43
2019-02-19T19:32:29.927Z,15.30
2019-02-19T19:35:16.772Z,12.73
2019-02-19T19:38:03.541Z,12.73
2019-02-19T19:40:50.406Z,12.03
2019-02-19T19:43:37.377Z,12.43
2019-02-19T19:46:17.563Z,9.80
2019-02-19T19:48:57.614Z,10.20
2019-02-19T19:51:37.737Z,12.53
2019-02-19T19:54:18.116Z,11.30
2019-02-19T19:56:58.301Z,12.83
2019-02-19T19:59:38.346Z,13.03
2019-02-19T20:02:20.008Z,15.30
2019-02-19T20:04:59.750Z,10.17
2019-02-19T20:07:39.706Z,14.93
2019-02-19T20:10:21.092Z,14.10
2019-02-19T20:13:01.114Z,14.37
2019-02-19T20:15:41.211Z,12.10
2019-02-19T20:18:21.327Z,15.13
2019-02-19T20:21:01.471Z,16.77
2019-02-19T20:23:41.425Z,12.13
2019-02-19T20:26:21.618Z,18.57
2019-02-19T20:29:02.808Z,14.07
2019-02-19T20:31:30.462Z,15.43
2019-02-19T20:34:17.310Z,16.17
2019-02-19T20:37:04.171Z,11.33
2019-02-19T20:43:13.941Z,12.10
2019-02-19T20:45:54.206Z,16.23
2019-02-19T20:48:34.394Z,16.90
2019-02-19T20:51:14.423Z,12.70
2019-02-19T20:53:54.513Z,15.57
2019-02-19T20:56:34.779Z,11.97
2019-02-19T20:59:17.040Z,14.97
2019-02-19T21:01:56.913Z,14.30
2019-02-19T21:04:38.163Z,16.90
2019-02-19T21:07:17.855Z,15.43
2019-02-19T21:09:57.585Z,13.73
2019-02-19T21:12:37.728Z,13.03
2019-02-19T21:15:17.802Z,11.90
2019-02-19T21:17:57.872Z,13.95
2019-02-19T21:20:38.143Z,20.20
2019-02-19T21:23:18.003Z,17.07
2019-02-19T21:25:58.105Z,23.73
2019-02-19T21:28:38.114Z,19.43
2019-02-19T21:31:18.228Z,19.60
2019-02-19T21:33:58.100Z,19.55
2019-02-19T21:36:37.914Z,17.92
2019-02-19T21:42:12.057Z,18.73
2019-02-19T21:44:58.928Z,13.58
2019-02-19T21:47:39.401Z,15.98
2019-02-19T21:50:19.370Z,21.17
2019-02-19T21:52:59.385Z,14.30
2019-02-19T21:55:39.336Z,21.62
2019-02-19T21:58:19.566Z,17.48
2019-02-19T22:00:59.546Z,21.90
2019-02-19T22:03:39.663Z,16.80
2019-02-19T22:06:20.026Z,14.18
2019-02-19T22:08:47.327Z,18.27
2019-02-19T22:11:14.772Z,15.23
2019-02-19T22:14:01.649Z,23.60
2019-02-19T22:16:48.503Z,16.37
2019-02-19T22:19:35.378Z,14.35
2019-02-19T22:22:24.592Z,15.95
2019-02-19T22:24:51.986Z,14.55
2019-02-19T22:27:19.232Z,18.55
2019-02-19T22:29:46.579Z,14.87
2019-02-19T22:32:33.424Z,17.92
2019-02-19T22:35:20.295Z,19.02
2019-02-19T22:38:07.134Z,15.72
2019-02-19T22:40:55.385Z,13.62
2019-02-19T22:44:02.633Z,15.18
2019-02-19T22:46:49.610Z,13.28
2019-02-19T22:49:29.270Z,12.40
2019-02-19T22:52:12.505Z,13.95
2019-02-19T22:55:10.683Z,12.00
2019-02-19T22:57:50.317Z,14.03
2019-02-19T23:00:49.817Z,17.40
2019-02-19T23:03:29.798Z,18.75
2019-02-19T23:06:09.870Z,14.58
2019-02-19T23:08:50.046Z,12.88
2019-02-19T23:11:30.094Z,10.20
2019-02-19T23:14:10.222Z,15.05
2019-02-19T23:16:50.216Z,15.60
2019-02-19T23:19:30.529Z,14.90
2019-02-19T23:22:10.755Z,15.28
2019-02-19T23:24:50.756Z,15.35
2019-02-19T23:27:31.123Z,14.00
2019-02-19T23:30:10.967Z,12.33
2019-02-19T23:32:51.226Z,13.05
2019-02-19T23:39:05.805Z,20.15
2019-02-19T23:41:45.835Z,10.65
2019-02-19T23:44:26.147Z,17.20
2019-02-19T23:47:06.421Z,14.98
2019-02-19T23:49:46.637Z,19.20
2019-02-19T23:52:30.542Z,12.55
2019-02-19T23:55:09.024Z,13.18
2019-02-19T23:57:36.390Z,9.88
